sensor_id;sensor_type;location;lat;lon;timestamp;temperature;humidity
7129;DHT22;3606;52.930;8.644;2022-12-08T00:01:40;2.30;99.90
7129;DHT22;3606;52.930;8.644;2022-12-08T00:04:06;2.20;99.90
7129;DHT22;3606;52.930;8.644;2022-12-08T00:06:35;2.20;99.90
7129;DHT22;3606;52.930;8.644;2022-12-08T00:09:30;2.20;99.90
7129;DHT22;3606;52.930;8.644;2022-12-08T00:11:59;2.20;99.90
7129;DHT22;3606;52.930;8.644;2022-12-08T00:14:28;2.20;99.90
7129;DHT22;3606;52.930;8.644;2022-12-08T00:16:54;2.20;99.90
7129;DHT22;3606;52.930;8.644;2022-12-08T00:19:20;2.20;99.90
7129;DHT22;3606;52.930;8.644;2022-12-08T00:21:46;2.30;99.90
7129;DHT22;3606;52.930;8.644;2022-12-08T00:24:12;2.30;99.90
7129;DHT22;3606;52.930;8.644;2022-12-08T00:26:37;2.30;99.90
7129;DHT22;3606;52.930;8.644;2022-12-08T00:29:03;2.20;99.90
7129;DHT22;3606;52.930;8.644;2022-12-08T00:31:29;2.20;99.90
7129;DHT22;3606;52.930;8.644;2022-12-08T00:33:54;2.10;99.90
7129;DHT22;3606;52.930;8.644;2022-12-08T00:36:20;2.10;99.90
7129;DHT22;3606;52.930;8.644;2022-12-08T00:38:46;2.10;99.90
7129;DHT22;3606;52.930;8.644;2022-12-08T00:41:19;2.00;99.90
7129;DHT22;3606;52.930;8.644;2022-12-08T00:44:09;2.00;99.90
7129;DHT22;3606;52.930;8.644;2022-12-08T00:46:35;2.00;99.90
7129;DHT22;3606;52.930;8.644;2022-12-08T00:49:02;2.10;99.90
7129;DHT22;3606;52.930;8.644;2022-12-08T00:51:28;2.10;99.90
7129;DHT22;3606;52.930;8.644;2022-12-08T00:53:54;2.20;99.90
7129;DHT22;3606;52.930;8.644;2022-12-08T00:56:19;2.20;99.90
7129;DHT22;3606;52.930;8.644;2022-12-08T00:58:45;2.10;99.90
7129;DHT22;3606;52.930;8.644;2022-12-08T01:01:12;2.10;99.90
7129;DHT22;3606;52.930;8.644;2022-12-08T01:03:38;2.20;99.90
7129;DHT22;3606;52.930;8.644;2022-12-08T01:06:05;2.30;99.90
7129;DHT22;3606;52.930;8.644;2022-12-08T01:08:31;2.30;99.90
7129;DHT22;3606;52.930;8.644;2022-12-08T01:11:02;2.30;99.90
7129;DHT22;3606;52.930;8.644;2022-12-08T01:13:28;2.30;99.90
7129;DHT22;3606;52.930;8.644;2022-12-08T01:15:53;2.40;99.90
7129;DHT22;3606;52.930;8.644;2022-12-08T01:18:19;2.30;99.90
7129;DHT22;3606;52.930;8.644;2022-12-08T01:20:45;2.40;99.90
7129;DHT22;3606;52.930;8.644;2022-12-08T01:23:11;2.40;99.90
7129;DHT22;3606;52.930;8.644;2022-12-08T01:25:36;2.50;99.90
7129;DHT22;3606;52.930;8.644;2022-12-08T01:28:02;2.40;99.90
7129;DHT22;3606;52.930;8.644;2022-12-08T01:30:28;2.50;99.90
7129;DHT22;3606;52.930;8.644;2022-12-08T01:32:53;2.50;99.90
7129;DHT22;3606;52.930;8.644;2022-12-08T01:35:19;2.60;99.90
7129;DHT22;3606;52.930;8.644;2022-12-08T01:37:45;2.60;99.90
7129;DHT22;3606;52.930;8.644;2022-12-08T01:40:10;2.60;99.90
7129;DHT22;3606;52.930;8.644;2022-12-08T01:42:36;2.60;99.90
7129;DHT22;3606;52.930;8.644;2022-12-08T01:45:26;2.70;99.90
7129;DHT22;3606;52.930;8.644;2022-12-08T01:47:56;2.60;99.90
7129;DHT22;3606;52.930;8.644;2022-12-08T01:50:23;2.70;99.90
7129;DHT22;3606;52.930;8.644;2022-12-08T01:52:54;2.60;99.90
7129;DHT22;3606;52.930;8.644;2022-12-08T01:56:09;2.50;99.90
7129;DHT22;3606;52.930;8.644;2022-12-08T01:58:34;2.40;99.90
7129;DHT22;3606;52.930;8.644;2022-12-08T02:01:00;2.40;99.90
7129;DHT22;3606;52.930;8.644;2022-12-08T02:03:29;2.40;99.90
7129;DHT22;3606;52.930;8.644;2022-12-08T02:05:56;2.40;99.90
7129;DHT22;3606;52.930;8.644;2022-12-08T02:08:23;2.40;99.90
7129;DHT22;3606;52.930;8.644;2022-12-08T02:10:50;2.40;99.90
7129;DHT22;3606;52.930;8.644;2022-12-08T02:13:18;2.40;99.90
7129;DHT22;3606;52.930;8.644;2022-12-08T02:18:46;2.50;99.90
7129;DHT22;3606;52.930;8.644;2022-12-08T02:21:28;2.50;99.90
7129;DHT22;3606;52.930;8.644;2022-12-08T02:24:12;2.60;99.90
7129;DHT22;3606;52.930;8.644;2022-12-08T02:35:24;2.70;99.90
7129;DHT22;3606;52.930;8.644;2022-12-08T02:40:34;2.80;99.90
7129;DHT22;3606;52.930;8.644;2022-12-08T02:45:47;2.70;99.90
7129;DHT22;3606;52.930;8.644;2022-12-08T02:48:14;2.70;99.90
7129;DHT22;3606;52.930;8.644;2022-12-08T02:50:39;2.70;99.90
7129;DHT22;3606;52.930;8.644;2022-12-08T02:53:05;2.70;99.90
7129;DHT22;3606;52.930;8.644;2022-12-08T03:03:23;2.70;99.90
7129;DHT22;3606;52.930;8.644;2022-12-08T03:08:47;2.70;99.90
7129;DHT22;3606;52.930;8.644;2022-12-08T03:11:29;2.50;99.90
7129;DHT22;3606;52.930;8.644;2022-12-08T03:13:59;2.40;99.90
7129;DHT22;3606;52.930;8.644;2022-12-08T03:16:27;2.30;99.90
7129;DHT22;3606;52.930;8.644;2022-12-08T03:19:02;2.30;99.90
7129;DHT22;3606;52.930;8.644;2022-12-08T03:21:32;2.20;99.90
7129;DHT22;3606;52.930;8.644;2022-12-08T03:24:01;2.20;99.90
7129;DHT22;3606;52.930;8.644;2022-12-08T03:26:47;2.30;99.90
7129;DHT22;3606;52.930;8.644;2022-12-08T03:29:15;2.40;99.90
7129;DHT22;3606;52.930;8.644;2022-12-08T03:31:51;2.40;99.90
7129;DHT22;3606;52.930;8.644;2022-12-08T03:34:18;2.40;99.90
7129;DHT22;3606;52.930;8.644;2022-12-08T03:36:46;2.50;99.90
7129;DHT22;3606;52.930;8.644;2022-12-08T03:39:11;2.50;99.90
7129;DHT22;3606;52.930;8.644;2022-12-08T03:41:37;2.60;99.90
7129;DHT22;3606;52.930;8.644;2022-12-08T03:44:03;2.60;99.90
7129;DHT22;3606;52.930;8.644;2022-12-08T03:46:29;2.70;99.90
7129;DHT22;3606;52.930;8.644;2022-12-08T03:48:55;2.60;99.90
7129;DHT22;3606;52.930;8.644;2022-12-08T03:51:21;2.60;99.90
7129;DHT22;3606;52.930;8.644;2022-12-08T03:53:47;2.60;99.90
7129;DHT22;3606;52.930;8.644;2022-12-08T03:56:31;2.60;99.90
7129;DHT22;3606;52.930;8.644;2022-12-08T03:58:57;2.70;99.90
7129;DHT22;3606;52.930;8.644;2022-12-08T04:01:23;2.70;99.90
7129;DHT22;3606;52.930;8.644;2022-12-08T04:03:49;2.70;99.90
7129;DHT22;3606;52.930;8.644;2022-12-08T04:06:15;2.60;99.90
7129;DHT22;3606;52.930;8.644;2022-12-08T04:08:41;2.70;99.90
7129;DHT22;3606;52.930;8.644;2022-12-08T04:11:07;2.70;99.90
7129;DHT22;3606;52.930;8.644;2022-12-08T04:13:34;2.70;99.90
7129;DHT22;3606;52.930;8.644;2022-12-08T04:16:00;2.70;99.90
7129;DHT22;3606;52.930;8.644;2022-12-08T04:18:26;2.80;99.90
7129;DHT22;3606;52.930;8.644;2022-12-08T04:20:51;2.80;99.90
7129;DHT22;3606;52.930;8.644;2022-12-08T04:23:17;2.80;99.90
7129;DHT22;3606;52.930;8.644;2022-12-08T04:25:43;2.80;99.90
7129;DHT22;3606;52.930;8.644;2022-12-08T04:28:08;2.80;99.90
7129;DHT22;3606;52.930;8.644;2022-12-08T04:30:34;2.80;99.90
7129;DHT22;3606;52.930;8.644;2022-12-08T04:33:00;2.80;99.90
7129;DHT22;3606;52.930;8.644;2022-12-08T04:35:27;2.80;99.90
7129;DHT22;3606;52.930;8.644;2022-12-08T04:37:53;2.80;99.90
7129;DHT22;3606;52.930;8.644;2022-12-08T04:40:18;2.80;99.90
7129;DHT22;3606;52.930;8.644;2022-12-08T04:42:44;2.80;99.90
7129;DHT22;3606;52.930;8.644;2022-12-08T04:45:10;2.80;99.90
7129;DHT22;3606;52.930;8.644;2022-12-08T04:47:36;2.80;99.90
7129;DHT22;3606;52.930;8.644;2022-12-08T04:50:03;2.80;99.90
7129;DHT22;3606;52.930;8.644;2022-12-08T04:52:29;2.80;99.90
7129;DHT22;3606;52.930;8.644;2022-12-08T04:54:54;2.80;99.90
7129;DHT22;3606;52.930;8.644;2022-12-08T04:57:20;2.70;99.90
7129;DHT22;3606;52.930;8.644;2022-12-08T04:59:45;2.80;99.90
7129;DHT22;3606;52.930;8.644;2022-12-08T05:02:11;2.80;99.90
7129;DHT22;3606;52.930;8.644;2022-12-08T05:04:37;2.80;99.90
7129;DHT22;3606;52.930;8.644;2022-12-08T05:07:03;2.80;99.90
7129;DHT22;3606;52.930;8.644;2022-12-08T05:09:29;2.80;99.90
7129;DHT22;3606;52.930;8.644;2022-12-08T05:11:54;2.80;99.90
7129;DHT22;3606;52.930;8.644;2022-12-08T05:14:20;2.80;99.90
7129;DHT22;3606;52.930;8.644;2022-12-08T05:16:46;2.70;99.90
7129;DHT22;3606;52.930;8.644;2022-12-08T05:19:12;2.70;99.90
7129;DHT22;3606;52.930;8.644;2022-12-08T05:21:38;2.70;99.90
7129;DHT22;3606;52.930;8.644;2022-12-08T05:24:04;2.70;99.90
7129;DHT22;3606;52.930;8.644;2022-12-08T05:26:29;2.70;99.90
7129;DHT22;3606;52.930;8.644;2022-12-08T05:28:55;2.80;99.90
7129;DHT22;3606;52.930;8.644;2022-12-08T05:31:21;2.80;99.90
7129;DHT22;3606;52.930;8.644;2022-12-08T05:33:48;2.70;99.90
7129;DHT22;3606;52.930;8.644;2022-12-08T05:36:15;2.70;99.90
7129;DHT22;3606;52.930;8.644;2022-12-08T05:38:41;2.80;99.90
7129;DHT22;3606;52.930;8.644;2022-12-08T05:41:07;2.70;99.90
7129;DHT22;3606;52.930;8.644;2022-12-08T05:43:34;2.70;99.90
7129;DHT22;3606;52.930;8.644;2022-12-08T05:46:00;2.80;99.90
7129;DHT22;3606;52.930;8.644;2022-12-08T05:48:25;2.80;99.90
7129;DHT22;3606;52.930;8.644;2022-12-08T05:50:51;2.80;99.90
7129;DHT22;3606;52.930;8.644;2022-12-08T05:53:18;2.70;99.90
7129;DHT22;3606;52.930;8.644;2022-12-08T05:55:43;2.80;99.90
7129;DHT22;3606;52.930;8.644;2022-12-08T05:58:12;2.70;99.90
7129;DHT22;3606;52.930;8.644;2022-12-08T06:00:38;2.70;99.90
7129;DHT22;3606;52.930;8.644;2022-12-08T06:03:04;2.70;99.90
7129;DHT22;3606;52.930;8.644;2022-12-08T06:05:31;2.70;99.90
7129;DHT22;3606;52.930;8.644;2022-12-08T06:07:57;2.70;99.90
7129;DHT22;3606;52.930;8.644;2022-12-08T06:10:23;2.70;99.90
7129;DHT22;3606;52.930;8.644;2022-12-08T06:12:48;2.70;99.90
7129;DHT22;3606;52.930;8.644;2022-12-08T06:15:14;2.70;99.90
7129;DHT22;3606;52.930;8.644;2022-12-08T06:17:39;2.70;99.90
7129;DHT22;3606;52.930;8.644;2022-12-08T06:20:05;2.70;99.90
7129;DHT22;3606;52.930;8.644;2022-12-08T06:22:31;2.70;99.90
7129;DHT22;3606;52.930;8.644;2022-12-08T06:24:57;2.70;99.90
7129;DHT22;3606;52.930;8.644;2022-12-08T06:27:22;2.80;99.90
7129;DHT22;3606;52.930;8.644;2022-12-08T06:29:48;2.70;99.90
7129;DHT22;3606;52.930;8.644;2022-12-08T06:32:14;2.70;99.90
7129;DHT22;3606;52.930;8.644;2022-12-08T06:34:39;2.70;99.90
7129;DHT22;3606;52.930;8.644;2022-12-08T06:37:05;2.70;99.90
7129;DHT22;3606;52.930;8.644;2022-12-08T06:39:30;2.80;99.90
7129;DHT22;3606;52.930;8.644;2022-12-08T06:41:56;2.70;99.90
7129;DHT22;3606;52.930;8.644;2022-12-08T06:44:44;2.70;99.90
7129;DHT22;3606;52.930;8.644;2022-12-08T06:47:10;2.80;99.90
7129;DHT22;3606;52.930;8.644;2022-12-08T06:49:36;2.80;99.90
7129;DHT22;3606;52.930;8.644;2022-12-08T06:52:01;2.70;99.90
7129;DHT22;3606;52.930;8.644;2022-12-08T06:54:27;2.80;99.90
7129;DHT22;3606;52.930;8.644;2022-12-08T06:56:52;2.80;99.90
7129;DHT22;3606;52.930;8.644;2022-12-08T06:59:18;2.80;99.90
7129;DHT22;3606;52.930;8.644;2022-12-08T07:01:44;2.80;99.90
7129;DHT22;3606;52.930;8.644;2022-12-08T07:04:10;2.80;99.90
7129;DHT22;3606;52.930;8.644;2022-12-08T07:06:36;2.80;99.90
7129;DHT22;3606;52.930;8.644;2022-12-08T07:09:02;2.80;99.90
7129;DHT22;3606;52.930;8.644;2022-12-08T07:11:28;2.80;99.90
7129;DHT22;3606;52.930;8.644;2022-12-08T07:13:57;2.70;99.90
7129;DHT22;3606;52.930;8.644;2022-12-08T07:16:22;2.70;99.90
7129;DHT22;3606;52.930;8.644;2022-12-08T07:18:48;2.60;99.90
7129;DHT22;3606;52.930;8.644;2022-12-08T07:21:15;2.60;99.90
7129;DHT22;3606;52.930;8.644;2022-12-08T07:23:41;2.50;99.90
7129;DHT22;3606;52.930;8.644;2022-12-08T07:26:10;2.60;99.90
7129;DHT22;3606;52.930;8.644;2022-12-08T07:28:38;2.60;99.90
7129;DHT22;3606;52.930;8.644;2022-12-08T07:31:05;2.70;99.90
7129;DHT22;3606;52.930;8.644;2022-12-08T07:33:31;2.60;99.90
7129;DHT22;3606;52.930;8.644;2022-12-08T07:35:59;2.60;99.90
7129;DHT22;3606;52.930;8.644;2022-12-08T07:38:25;2.60;99.90
7129;DHT22;3606;52.930;8.644;2022-12-08T07:40:51;2.60;99.90
7129;DHT22;3606;52.930;8.644;2022-12-08T07:43:17;2.50;99.90
7129;DHT22;3606;52.930;8.644;2022-12-08T07:45:43;2.50;99.90
7129;DHT22;3606;52.930;8.644;2022-12-08T07:48:08;2.50;99.90
7129;DHT22;3606;52.930;8.644;2022-12-08T07:50:34;2.40;99.90
7129;DHT22;3606;52.930;8.644;2022-12-08T07:53:00;2.50;99.90
7129;DHT22;3606;52.930;8.644;2022-12-08T07:55:25;2.40;99.90
7129;DHT22;3606;52.930;8.644;2022-12-08T07:57:51;2.40;99.90
7129;DHT22;3606;52.930;8.644;2022-12-08T08:00:18;2.40;99.90
7129;DHT22;3606;52.930;8.644;2022-12-08T08:02:43;2.40;99.90
7129;DHT22;3606;52.930;8.644;2022-12-08T08:05:10;2.30;99.90
7129;DHT22;3606;52.930;8.644;2022-12-08T08:07:37;2.40;99.90
7129;DHT22;3606;52.930;8.644;2022-12-08T08:10:03;2.40;99.90
7129;DHT22;3606;52.930;8.644;2022-12-08T08:12:29;2.40;99.90
7129;DHT22;3606;52.930;8.644;2022-12-08T08:14:55;2.40;99.90
7129;DHT22;3606;52.930;8.644;2022-12-08T08:17:20;2.40;99.90
7129;DHT22;3606;52.930;8.644;2022-12-08T08:19:46;2.40;99.90
7129;DHT22;3606;52.930;8.644;2022-12-08T08:22:12;2.40;99.90
7129;DHT22;3606;52.930;8.644;2022-12-08T08:24:37;2.40;99.90
7129;DHT22;3606;52.930;8.644;2022-12-08T08:27:03;2.50;99.90
7129;DHT22;3606;52.930;8.644;2022-12-08T08:29:28;2.50;99.90
7129;DHT22;3606;52.930;8.644;2022-12-08T08:31:54;2.60;99.90
7129;DHT22;3606;52.930;8.644;2022-12-08T08:34:19;2.70;99.90
7129;DHT22;3606;52.930;8.644;2022-12-08T08:36:45;2.70;99.90
7129;DHT22;3606;52.930;8.644;2022-12-08T08:39:11;2.70;99.90
7129;DHT22;3606;52.930;8.644;2022-12-08T08:41:37;2.80;99.90
7129;DHT22;3606;52.930;8.644;2022-12-08T08:44:03;2.70;99.90
7129;DHT22;3606;52.930;8.644;2022-12-08T08:46:29;2.60;99.90
7129;DHT22;3606;52.930;8.644;2022-12-08T08:48:54;2.70;99.90
7129;DHT22;3606;52.930;8.644;2022-12-08T08:51:20;2.70;99.90
7129;DHT22;3606;52.930;8.644;2022-12-08T08:53:45;2.70;99.90
7129;DHT22;3606;52.930;8.644;2022-12-08T08:56:15;2.70;99.90
7129;DHT22;3606;52.930;8.644;2022-12-08T08:58:41;2.70;99.90
7129;DHT22;3606;52.930;8.644;2022-12-08T09:01:07;2.70;99.90
7129;DHT22;3606;52.930;8.644;2022-12-08T09:03:32;2.70;99.90
7129;DHT22;3606;52.930;8.644;2022-12-08T09:05:58;2.60;99.90
7129;DHT22;3606;52.930;8.644;2022-12-08T09:08:24;2.70;99.90
7129;DHT22;3606;52.930;8.644;2022-12-08T09:10:50;2.70;99.90
7129;DHT22;3606;52.930;8.644;2022-12-08T09:13:15;2.70;99.90
7129;DHT22;3606;52.930;8.644;2022-12-08T09:15:41;2.70;99.90
7129;DHT22;3606;52.930;8.644;2022-12-08T09:18:06;2.80;99.90
7129;DHT22;3606;52.930;8.644;2022-12-08T09:20:33;2.90;99.90
7129;DHT22;3606;52.930;8.644;2022-12-08T09:22:59;3.00;99.90
7129;DHT22;3606;52.930;8.644;2022-12-08T09:25:24;3.10;99.90
7129;DHT22;3606;52.930;8.644;2022-12-08T09:27:50;3.20;99.90
7129;DHT22;3606;52.930;8.644;2022-12-08T09:30:16;3.30;99.90
7129;DHT22;3606;52.930;8.644;2022-12-08T09:32:41;3.40;99.90
7129;DHT22;3606;52.930;8.644;2022-12-08T09:35:07;3.30;99.90
7129;DHT22;3606;52.930;8.644;2022-12-08T09:37:33;3.30;99.90
7129;DHT22;3606;52.930;8.644;2022-12-08T09:39:59;3.20;99.90
7129;DHT22;3606;52.930;8.644;2022-12-08T09:45:32;3.10;99.90
7129;DHT22;3606;52.930;8.644;2022-12-08T09:48:10;3.20;99.90
7129;DHT22;3606;52.930;8.644;2022-12-08T09:50:46;3.20;99.90
7129;DHT22;3606;52.930;8.644;2022-12-08T09:53:16;3.20;99.90
7129;DHT22;3606;52.930;8.644;2022-12-08T09:55:58;3.20;99.90
7129;DHT22;3606;52.930;8.644;2022-12-08T10:01:08;3.20;99.90
7129;DHT22;3606;52.930;8.644;2022-12-08T10:03:34;3.10;99.90
7129;DHT22;3606;52.930;8.644;2022-12-08T10:06:06;3.10;99.90
7129;DHT22;3606;52.930;8.644;2022-12-08T10:08:45;3.00;99.90
7129;DHT22;3606;52.930;8.644;2022-12-08T10:11:21;3.00;99.90
7129;DHT22;3606;52.930;8.644;2022-12-08T10:14:04;3.00;99.90
7129;DHT22;3606;52.930;8.644;2022-12-08T10:16:43;2.90;99.90
7129;DHT22;3606;52.930;8.644;2022-12-08T10:21:36;2.70;99.90
7129;DHT22;3606;52.930;8.644;2022-12-08T10:24:12;2.70;99.90
7129;DHT22;3606;52.930;8.644;2022-12-08T10:26:40;2.60;99.90
7129;DHT22;3606;52.930;8.644;2022-12-08T10:29:11;2.60;99.90
7129;DHT22;3606;52.930;8.644;2022-12-08T10:31:36;2.50;99.90
7129;DHT22;3606;52.930;8.644;2022-12-08T10:34:18;2.40;99.90
7129;DHT22;3606;52.930;8.644;2022-12-08T10:36:56;2.40;99.90
7129;DHT22;3606;52.930;8.644;2022-12-08T10:39:39;2.40;99.90
7129;DHT22;3606;52.930;8.644;2022-12-08T10:44:51;2.40;99.90
7129;DHT22;3606;52.930;8.644;2022-12-08T10:47:20;2.40;99.90
7129;DHT22;3606;52.930;8.644;2022-12-08T10:49:46;2.40;99.90
7129;DHT22;3606;52.930;8.644;2022-12-08T10:52:22;2.40;99.90
7129;DHT22;3606;52.930;8.644;2022-12-08T10:54:52;2.40;99.90
7129;DHT22;3606;52.930;8.644;2022-12-08T10:57:22;2.30;99.90
7129;DHT22;3606;52.930;8.644;2022-12-08T10:59:49;2.30;99.90
7129;DHT22;3606;52.930;8.644;2022-12-08T11:02:19;2.30;99.90
7129;DHT22;3606;52.930;8.644;2022-12-08T11:04:45;2.20;99.90
7129;DHT22;3606;52.930;8.644;2022-12-08T11:07:18;2.30;99.90
7129;DHT22;3606;52.930;8.644;2022-12-08T11:09:46;2.20;99.90
7129;DHT22;3606;52.930;8.644;2022-12-08T11:12:14;2.20;99.90
7129;DHT22;3606;52.930;8.644;2022-12-08T11:20:00;2.50;99.90
7129;DHT22;3606;52.930;8.644;2022-12-08T11:22:37;2.60;99.90
7129;DHT22;3606;52.930;8.644;2022-12-08T11:27:40;2.90;99.90
7129;DHT22;3606;52.930;8.644;2022-12-08T11:30:19;2.90;99.90
7129;DHT22;3606;52.930;8.644;2022-12-08T11:32:47;3.10;99.90
7129;DHT22;3606;52.930;8.644;2022-12-08T11:37:52;3.20;99.90
7129;DHT22;3606;52.930;8.644;2022-12-08T11:40:28;3.20;99.90
7129;DHT22;3606;52.930;8.644;2022-12-08T11:45:36;3.40;99.90
7129;DHT22;3606;52.930;8.644;2022-12-08T11:53:40;3.80;99.90
7129;DHT22;3606;52.930;8.644;2022-12-08T11:56:12;3.90;99.90
7129;DHT22;3606;52.930;8.644;2022-12-08T11:58:43;3.70;99.90
7129;DHT22;3606;52.930;8.644;2022-12-08T12:01:24;3.40;99.90
7129;DHT22;3606;52.930;8.644;2022-12-08T12:20:35;3.30;99.90
7129;DHT22;3606;52.930;8.644;2022-12-08T12:23:05;3.30;99.90
7129;DHT22;3606;52.930;8.644;2022-12-08T12:25:34;3.30;99.90
7129;DHT22;3606;52.930;8.644;2022-12-08T12:28:05;3.50;99.90
7129;DHT22;3606;52.930;8.644;2022-12-08T12:33:14;3.80;99.90
7129;DHT22;3606;52.930;8.644;2022-12-08T12:35:43;4.20;99.90
7129;DHT22;3606;52.930;8.644;2022-12-08T12:38:32;4.40;99.90
7129;DHT22;3606;52.930;8.644;2022-12-08T12:41:34;4.60;99.90
7129;DHT22;3606;52.930;8.644;2022-12-08T12:57:24;5.10;1.00
7129;DHT22;3606;52.930;8.644;2022-12-08T13:04:56;6.10;99.90
7129;DHT22;3606;52.930;8.644;2022-12-08T13:07:25;6.20;99.90
7129;DHT22;3606;52.930;8.644;2022-12-08T13:10:00;6.10;99.90
7129;DHT22;3606;52.930;8.644;2022-12-08T13:12:26;6.10;1.00
7129;DHT22;3606;52.930;8.644;2022-12-08T13:14:58;5.90;99.90
7129;DHT22;3606;52.930;8.644;2022-12-08T13:17:31;5.80;99.90
7129;DHT22;3606;52.930;8.644;2022-12-08T13:20:00;5.50;99.90
7129;DHT22;3606;52.930;8.644;2022-12-08T13:22:45;5.40;1.00
7129;DHT22;3606;52.930;8.644;2022-12-08T13:33:31;4.00;1.00
7129;DHT22;3606;52.930;8.644;2022-12-08T13:38:31;3.70;1.00
7129;DHT22;3606;52.930;8.644;2022-12-08T13:41:00;3.50;1.00
7129;DHT22;3606;52.930;8.644;2022-12-08T13:43:52;3.50;1.00
7129;DHT22;3606;52.930;8.644;2022-12-08T13:46:30;3.50;23.00
7129;DHT22;3606;52.930;8.644;2022-12-08T13:48:58;3.60;78.30
7129;DHT22;3606;52.930;8.644;2022-12-08T13:51:38;3.70;87.90
7129;DHT22;3606;52.930;8.644;2022-12-08T13:54:24;3.70;76.00
7129;DHT22;3606;52.930;8.644;2022-12-08T13:56:51;3.80;85.30
7129;DHT22;3606;52.930;8.644;2022-12-08T13:59:30;3.80;93.30
7129;DHT22;3606;52.930;8.644;2022-12-08T14:02:07;3.90;82.00
7129;DHT22;3606;52.930;8.644;2022-12-08T14:04:36;4.60;31.60
7129;DHT22;3606;52.930;8.644;2022-12-08T14:07:02;5.50;1.00
7129;DHT22;3606;52.930;8.644;2022-12-08T14:09:33;5.60;99.90
7129;DHT22;3606;52.930;8.644;2022-12-08T14:14:41;4.70;99.90
7129;DHT22;3606;52.930;8.644;2022-12-08T14:17:16;4.20;1.00
7129;DHT22;3606;52.930;8.644;2022-12-08T14:19:46;3.90;1.00
7129;DHT22;3606;52.930;8.644;2022-12-08T14:22:16;3.70;1.00
7129;DHT22;3606;52.930;8.644;2022-12-08T14:24:47;3.30;1.00
7129;DHT22;3606;52.930;8.644;2022-12-08T14:27:15;3.20;1.00
7129;DHT22;3606;52.930;8.644;2022-12-08T14:29:46;3.20;14.40
7129;DHT22;3606;52.930;8.644;2022-12-08T14:32:29;3.20;9.80
7129;DHT22;3606;52.930;8.644;2022-12-08T14:37:25;3.40;1.00
7129;DHT22;3606;52.930;8.644;2022-12-08T14:39:52;3.10;1.00
7129;DHT22;3606;52.930;8.644;2022-12-08T14:42:25;2.80;1.00
7129;DHT22;3606;52.930;8.644;2022-12-08T14:45:04;2.60;13.50
7129;DHT22;3606;52.930;8.644;2022-12-08T14:47:32;2.20;25.20
7129;DHT22;3606;52.930;8.644;2022-12-08T14:49:59;1.90;73.00
7129;DHT22;3606;52.930;8.644;2022-12-08T14:52:25;1.80;99.90
7129;DHT22;3606;52.930;8.644;2022-12-08T14:54:52;1.70;99.90
7129;DHT22;3606;52.930;8.644;2022-12-08T14:57:18;1.60;99.90
7129;DHT22;3606;52.930;8.644;2022-12-08T14:59:45;1.40;99.90
7129;DHT22;3606;52.930;8.644;2022-12-08T15:05:09;1.10;99.90
7129;DHT22;3606;52.930;8.644;2022-12-08T15:07:48;1.00;99.90
7129;DHT22;3606;52.930;8.644;2022-12-08T15:12:55;0.90;99.90
7129;DHT22;3606;52.930;8.644;2022-12-08T15:15:21;0.90;99.90
7129;DHT22;3606;52.930;8.644;2022-12-08T15:23:03;0.80;99.90
7129;DHT22;3606;52.930;8.644;2022-12-08T15:25:29;0.80;99.90
7129;DHT22;3606;52.930;8.644;2022-12-08T15:27:55;0.70;99.90
7129;DHT22;3606;52.930;8.644;2022-12-08T15:30:23;0.70;99.90
7129;DHT22;3606;52.930;8.644;2022-12-08T15:32:51;0.80;99.90
7129;DHT22;3606;52.930;8.644;2022-12-08T15:35:17;0.80;99.90
7129;DHT22;3606;52.930;8.644;2022-12-08T15:37:43;0.80;99.90
7129;DHT22;3606;52.930;8.644;2022-12-08T15:40:16;0.80;99.90
7129;DHT22;3606;52.930;8.644;2022-12-08T15:42:42;0.70;99.90
7129;DHT22;3606;52.930;8.644;2022-12-08T15:45:14;0.60;99.90
7129;DHT22;3606;52.930;8.644;2022-12-08T15:47:41;0.50;99.90
7129;DHT22;3606;52.930;8.644;2022-12-08T15:50:18;0.60;99.90
7129;DHT22;3606;52.930;8.644;2022-12-08T15:52:48;0.60;99.90
7129;DHT22;3606;52.930;8.644;2022-12-08T15:55:16;0.60;99.90
7129;DHT22;3606;52.930;8.644;2022-12-08T15:57:44;0.60;99.90
7129;DHT22;3606;52.930;8.644;2022-12-08T16:02:49;0.80;99.90
7129;DHT22;3606;52.930;8.644;2022-12-08T16:05:15;1.00;99.90
7129;DHT22;3606;52.930;8.644;2022-12-08T16:07:41;1.20;99.90
7129;DHT22;3606;52.930;8.644;2022-12-08T16:10:09;1.40;99.90
7129;DHT22;3606;52.930;8.644;2022-12-08T16:12:39;1.50;99.90
7129;DHT22;3606;52.930;8.644;2022-12-08T16:15:23;1.60;99.90
7129;DHT22;3606;52.930;8.644;2022-12-08T16:17:49;1.50;99.90
7129;DHT22;3606;52.930;8.644;2022-12-08T16:20:15;1.40;99.90
7129;DHT22;3606;52.930;8.644;2022-12-08T16:22:42;1.30;99.90
7129;DHT22;3606;52.930;8.644;2022-12-08T16:25:09;1.10;99.90
7129;DHT22;3606;52.930;8.644;2022-12-08T16:27:36;0.90;99.90
7129;DHT22;3606;52.930;8.644;2022-12-08T16:30:04;0.70;99.90
7129;DHT22;3606;52.930;8.644;2022-12-08T16:32:30;0.50;99.90
7129;DHT22;3606;52.930;8.644;2022-12-08T16:34:55;0.40;99.90
7129;DHT22;3606;52.930;8.644;2022-12-08T16:37:23;0.20;99.90
7129;DHT22;3606;52.930;8.644;2022-12-08T16:39:51;0.10;99.90
7129;DHT22;3606;52.930;8.644;2022-12-08T16:42:29;0.00;99.90
7129;DHT22;3606;52.930;8.644;2022-12-08T16:45:25;0.00;99.90
7129;DHT22;3606;52.930;8.644;2022-12-08T16:47:53;-0.10;99.90
7129;DHT22;3606;52.930;8.644;2022-12-08T16:50:30;0.00;99.90
7129;DHT22;3606;52.930;8.644;2022-12-08T16:53:04;0.10;99.90
7129;DHT22;3606;52.930;8.644;2022-12-08T16:55:30;0.40;99.90
7129;DHT22;3606;52.930;8.644;2022-12-08T16:57:56;0.60;99.90
7129;DHT22;3606;52.930;8.644;2022-12-08T17:00:23;0.60;99.90
7129;DHT22;3606;52.930;8.644;2022-12-08T17:02:50;0.60;99.90
7129;DHT22;3606;52.930;8.644;2022-12-08T17:05:19;0.50;99.90
7129;DHT22;3606;52.930;8.644;2022-12-08T17:07:46;0.40;99.90
7129;DHT22;3606;52.930;8.644;2022-12-08T17:10:15;0.30;99.90
7129;DHT22;3606;52.930;8.644;2022-12-08T17:12:42;0.30;99.90
7129;DHT22;3606;52.930;8.644;2022-12-08T17:15:13;0.20;99.90
7129;DHT22;3606;52.930;8.644;2022-12-08T17:17:39;0.20;99.90
7129;DHT22;3606;52.930;8.644;2022-12-08T17:20:20;0.10;99.90
7129;DHT22;3606;52.930;8.644;2022-12-08T17:22:46;0.10;99.90
7129;DHT22;3606;52.930;8.644;2022-12-08T17:25:12;0.00;99.90
7129;DHT22;3606;52.930;8.644;2022-12-08T17:27:39;-0.10;99.90
7129;DHT22;3606;52.930;8.644;2022-12-08T17:30:07;-0.30;99.90
7129;DHT22;3606;52.930;8.644;2022-12-08T17:32:32;-0.40;99.90
7129;DHT22;3606;52.930;8.644;2022-12-08T17:34:58;-0.50;99.90
7129;DHT22;3606;52.930;8.644;2022-12-08T17:37:23;-0.60;99.90
7129;DHT22;3606;52.930;8.644;2022-12-08T17:39:49;-0.70;99.90
7129;DHT22;3606;52.930;8.644;2022-12-08T17:42:15;-0.70;99.90
7129;DHT22;3606;52.930;8.644;2022-12-08T17:44:40;-0.80;99.90
7129;DHT22;3606;52.930;8.644;2022-12-08T17:47:06;-0.80;99.90
7129;DHT22;3606;52.930;8.644;2022-12-08T17:49:32;-0.90;99.90
7129;DHT22;3606;52.930;8.644;2022-12-08T17:52:02;-1.00;99.90
7129;DHT22;3606;52.930;8.644;2022-12-08T17:54:28;-1.10;99.90
7129;DHT22;3606;52.930;8.644;2022-12-08T17:56:55;-1.10;99.90
7129;DHT22;3606;52.930;8.644;2022-12-08T17:59:24;-1.10;99.90
7129;DHT22;3606;52.930;8.644;2022-12-08T18:01:54;-0.90;99.90
7129;DHT22;3606;52.930;8.644;2022-12-08T18:04:20;-0.70;99.90
7129;DHT22;3606;52.930;8.644;2022-12-08T18:06:46;-0.40;99.90
7129;DHT22;3606;52.930;8.644;2022-12-08T18:09:12;-0.20;99.90
7129;DHT22;3606;52.930;8.644;2022-12-08T18:11:39;-0.10;99.90
7129;DHT22;3606;52.930;8.644;2022-12-08T18:14:06;-0.10;99.90
7129;DHT22;3606;52.930;8.644;2022-12-08T18:16:37;-0.10;99.90
7129;DHT22;3606;52.930;8.644;2022-12-08T18:19:03;-0.20;99.90
7129;DHT22;3606;52.930;8.644;2022-12-08T18:21:28;-0.30;99.90
7129;DHT22;3606;52.930;8.644;2022-12-08T18:23:54;-0.50;99.90
7129;DHT22;3606;52.930;8.644;2022-12-08T18:26:20;-0.60;99.90
7129;DHT22;3606;52.930;8.644;2022-12-08T18:28:46;-0.80;99.90
7129;DHT22;3606;52.930;8.644;2022-12-08T18:31:14;-1.00;99.90